createdAt,value
2023-05-09T00:00:45.348Z,17.40
2023-05-09T00:01:45.914Z,17.90
2023-05-09T00:02:46.495Z,17.70
2023-05-09T00:03:46.471Z,17.80
2023-05-09T00:04:47.256Z,17.50
2023-05-09T00:05:47.346Z,18.10
2023-05-09T00:06:47.357Z,18.20
2023-05-09T00:07:47.933Z,19.90
2023-05-09T00:08:48.510Z,18.90
2023-05-09T00:09:49.064Z,20.30
2023-05-09T00:10:49.625Z,20.70
2023-05-09T00:11:50.208Z,20.70
2023-05-09T00:12:50.787Z,20.30
2023-05-09T00:13:50.876Z,20.50
2023-05-09T00:14:50.916Z,20.90
2023-05-09T00:15:51.468Z,20.50
2023-05-09T00:16:52.120Z,20.00
2023-05-09T00:17:52.148Z,20.30
2023-05-09T00:18:52.141Z,20.20
2023-05-09T00:19:52.685Z,21.40
2023-05-09T00:20:53.238Z,20.00
2023-05-09T00:21:53.792Z,21.00
2023-05-09T00:22:54.354Z,20.50
2023-05-09T00:23:54.924Z,21.80
2023-05-09T00:24:55.483Z,22.70
2023-05-09T00:25:56.056Z,22.80
2023-05-09T00:26:56.615Z,21.30
2023-05-09T00:27:57.183Z,22.30
2023-05-09T00:28:57.741Z,22.20
2023-05-09T00:29:58.325Z,21.20
2023-05-09T00:30:58.904Z,22.00
2023-05-09T00:31:59.542Z,22.40
2023-05-09T00:32:59.628Z,23.40
2023-05-09T00:33:59.646Z,23.20
2023-05-09T00:34:59.672Z,23.00
2023-05-09T00:35:59.686Z,23.10
2023-05-09T00:36:59.722Z,22.70
2023-05-09T00:38:00.291Z,23.60
2023-05-09T00:39:00.865Z,22.80
2023-05-09T00:40:01.443Z,22.40
2023-05-09T00:41:02.027Z,23.80
2023-05-09T00:42:02.048Z,24.30
2023-05-09T00:43:02.038Z,23.00
2023-05-09T00:44:02.599Z,22.40
2023-05-09T00:45:03.189Z,21.90
2023-05-09T00:46:03.219Z,23.30
2023-05-09T00:47:03.239Z,23.70
2023-05-09T00:48:03.812Z,22.70
2023-05-09T00:49:04.400Z,24.50
2023-05-09T00:50:04.957Z,24.50
2023-05-09T00:51:05.528Z,23.20
2023-05-09T00:52:06.088Z,22.30
2023-05-09T00:53:06.691Z,23.10
2023-05-09T00:54:09.112Z,21.70
2023-05-09T00:55:06.914Z,22.50
2023-05-09T00:56:07.479Z,22.60
2023-05-09T00:57:08.056Z,21.40
2023-05-09T00:58:08.623Z,22.10
2023-05-09T00:59:09.203Z,21.70
2023-05-09T01:00:09.212Z,22.90
2023-05-09T01:01:09.264Z,21.50
2023-05-09T01:02:09.324Z,22.60
2023-05-09T01:03:09.464Z,23.30
2023-05-09T01:04:09.487Z,22.50
2023-05-09T01:05:09.487Z,21.60
2023-05-09T01:06:10.062Z,22.90
2023-05-09T01:07:10.634Z,24.30
2023-05-09T01:08:11.199Z,22.60
2023-05-09T01:09:11.770Z,21.00
2023-05-09T01:10:12.350Z,23.60
2023-05-09T01:11:12.936Z,22.80
2023-05-09T01:12:12.913Z,22.70
2023-05-09T01:13:13.536Z,23.50
2023-05-09T01:14:13.539Z,24.10
2023-05-09T01:15:14.352Z,23.20
2023-05-09T01:16:14.634Z,22.50
2023-05-09T01:17:14.650Z,21.90
2023-05-09T01:18:14.686Z,22.10
2023-05-09T01:19:14.705Z,21.70
2023-05-09T01:20:15.267Z,22.20
2023-05-09T01:21:15.813Z,22.50
2023-05-09T01:22:16.430Z,22.20
2023-05-09T01:23:16.450Z,22.20
2023-05-09T01:24:17.088Z,22.40
2023-05-09T01:25:17.161Z,21.80
2023-05-09T01:26:17.165Z,21.30
2023-05-09T01:27:17.743Z,22.60
2023-05-09T01:28:18.336Z,20.70
2023-05-09T01:29:18.900Z,21.10
2023-05-09T01:30:19.458Z,19.50
2023-05-09T01:31:20.068Z,20.20
2023-05-09T01:32:20.058Z,19.60
2023-05-09T01:33:20.624Z,19.20
2023-05-09T01:34:21.203Z,20.40
2023-05-09T01:35:21.205Z,21.00
2023-05-09T01:36:21.807Z,20.80
2023-05-09T01:37:21.807Z,22.10
2023-05-09T01:38:22.363Z,19.70
2023-05-09T01:39:22.963Z,19.70
2023-05-09T01:40:23.000Z,19.20
2023-05-09T01:41:23.008Z,17.80
2023-05-09T01:42:23.557Z,16.70
2023-05-09T01:43:24.102Z,15.30
2023-05-09T01:44:24.654Z,15.50
2023-05-09T01:45:25.253Z,15.00
2023-05-09T01:46:25.338Z,16.70
2023-05-09T01:47:25.392Z,17.20
2023-05-09T01:48:25.372Z,19.40
2023-05-09T01:49:25.940Z,21.30
2023-05-09T01:50:26.514Z,20.20
2023-05-09T01:51:27.133Z,18.20
2023-05-09T01:52:27.157Z,17.50
2023-05-09T01:53:27.723Z,17.30
2023-05-09T01:54:28.296Z,16.00
2023-05-09T01:55:28.874Z,17.50
2023-05-09T01:56:29.454Z,17.10
2023-05-09T01:57:30.051Z,16.70
2023-05-09T01:58:30.070Z,15.60
2023-05-09T01:59:30.070Z,15.80
2023-05-09T02:00:30.647Z,15.60
2023-05-09T02:01:30.677Z,15.30
2023-05-09T02:02:31.380Z,17.00
2023-05-09T02:03:31.496Z,15.80
2023-05-09T02:04:31.491Z,15.20
2023-05-09T02:05:32.091Z,16.30
2023-05-09T02:06:32.073Z,17.10
2023-05-09T02:07:32.652Z,14.40
2023-05-09T02:08:33.256Z,15.60
2023-05-09T02:09:33.832Z,14.50
2023-05-09T02:10:34.416Z,15.00
2023-05-09T02:11:34.991Z,17.10
2023-05-09T02:12:35.578Z,19.00
2023-05-09T02:13:35.611Z,20.30
2023-05-09T02:14:36.203Z,20.10
2023-05-09T02:15:36.808Z,20.50
2023-05-09T02:16:37.460Z,20.30
2023-05-09T02:17:37.520Z,20.40
2023-05-09T02:18:37.559Z,19.60
2023-05-09T02:19:38.174Z,21.00
2023-05-09T02:20:38.233Z,19.90
2023-05-09T02:21:38.251Z,20.70
2023-05-09T02:22:38.830Z,20.20
2023-05-09T02:23:39.404Z,19.80
2023-05-09T02:24:39.977Z,21.90
2023-05-09T02:25:40.557Z,21.20
2023-05-09T02:26:41.124Z,20.80
2023-05-09T02:27:41.692Z,21.80
2023-05-09T02:28:42.289Z,24.90
2023-05-09T02:29:42.889Z,21.80
2023-05-09T02:30:43.488Z,21.90
2023-05-09T02:31:43.520Z,19.10
2023-05-09T02:32:43.622Z,19.50
2023-05-09T02:33:43.707Z,18.50
2023-05-09T02:34:43.710Z,20.50
2023-05-09T02:35:44.313Z,18.70
2023-05-09T02:36:44.909Z,17.80
2023-05-09T02:37:45.524Z,17.20
2023-05-09T02:38:45.751Z,16.70
2023-05-09T02:39:45.968Z,16.70
2023-05-09T02:40:45.965Z,16.70
2023-05-09T02:41:46.551Z,17.60
2023-05-09T02:42:47.114Z,15.90
2023-05-09T02:43:47.681Z,17.00
2023-05-09T02:44:48.278Z,17.20
2023-05-09T02:45:48.392Z,17.70
2023-05-09T02:46:48.419Z,17.00
2023-05-09T02:47:49.018Z,18.00
2023-05-09T02:48:49.025Z,19.80
2023-05-09T02:49:49.629Z,18.60
2023-05-09T02:50:49.675Z,20.20
2023-05-09T02:51:49.702Z,20.50
2023-05-09T02:52:50.327Z,21.50
2023-05-09T02:53:50.328Z,21.00
2023-05-09T02:54:50.943Z,23.50
2023-05-09T02:55:50.952Z,22.70
2023-05-09T02:56:51.556Z,21.10
2023-05-09T02:57:58.962Z,18.80
2023-05-09T02:58:51.831Z,17.80
2023-05-09T02:59:52.417Z,18.50
2023-05-09T03:00:53.016Z,18.50
2023-05-09T03:01:53.677Z,19.30
2023-05-09T03:02:53.837Z,19.90
2023-05-09T03:03:53.885Z,18.60
2023-05-09T03:04:54.472Z,18.80
2023-05-09T03:05:55.080Z,18.50
2023-05-09T03:06:55.087Z,17.00
2023-05-09T03:07:55.705Z,18.20
2023-05-09T03:08:55.726Z,17.10
2023-05-09T03:09:55.733Z,15.70
2023-05-09T03:10:56.343Z,16.60
2023-05-09T03:11:56.361Z,16.70
2023-05-09T03:12:57.108Z,16.50
2023-05-09T03:13:57.232Z,17.50
2023-05-09T03:14:57.226Z,16.60
2023-05-09T03:15:57.861Z,19.60
2023-05-09T03:16:57.886Z,18.60
2023-05-09T03:17:58.515Z,18.90
2023-05-09T03:18:58.555Z,18.50
2023-05-09T03:20:00.547Z,18.90
2023-05-09T03:20:59.437Z,19.90
2023-05-09T03:22:00.039Z,20.80
2023-05-09T03:23:00.084Z,20.00
2023-05-09T03:24:00.132Z,20.10
2023-05-09T03:25:00.157Z,20.10
2023-05-09T03:26:00.775Z,21.20
2023-05-09T03:27:00.794Z,22.10
2023-05-09T03:28:01.417Z,20.20
2023-05-09T03:29:01.448Z,20.30
2023-05-09T03:30:02.051Z,21.60
2023-05-09T03:31:02.696Z,21.20
2023-05-09T03:32:02.720Z,21.40
2023-05-09T03:33:03.354Z,21.10
2023-05-09T03:34:03.375Z,21.70
2023-05-09T03:35:03.403Z,22.50
2023-05-09T03:36:04.010Z,21.50
2023-05-09T03:37:04.621Z,21.10
2023-05-09T03:38:05.229Z,21.90
2023-05-09T03:39:05.834Z,22.80
2023-05-09T03:40:06.508Z,21.70
2023-05-09T03:41:06.559Z,23.40
2023-05-09T03:42:07.168Z,22.00
2023-05-09T03:43:07.753Z,23.20
2023-05-09T03:44:08.340Z,23.00
2023-05-09T03:45:08.366Z,24.00
2023-05-09T03:46:08.957Z,23.50
2023-05-09T03:47:09.543Z,22.20
2023-05-09T03:48:10.188Z,23.40
2023-05-09T03:49:10.261Z,22.80
2023-05-09T03:50:10.869Z,22.40
2023-05-09T03:51:10.893Z,24.40
2023-05-09T03:52:11.504Z,25.20
2023-05-09T03:53:12.091Z,23.50
2023-05-09T03:54:12.680Z,22.90
2023-05-09T03:55:13.014Z,22.40
2023-05-09T03:56:13.203Z,23.20
2023-05-09T03:57:13.778Z,22.80
2023-05-09T03:58:14.401Z,24.60
2023-05-09T03:59:14.436Z,25.00
2023-05-09T04:00:14.555Z,24.30
2023-05-09T04:01:14.649Z,22.90
2023-05-09T04:02:14.723Z,23.80
2023-05-09T04:03:14.869Z,23.80
2023-05-09T04:04:15.047Z,22.70
2023-05-09T04:05:15.470Z,24.20
2023-05-09T04:06:15.717Z,24.30
2023-05-09T04:07:15.748Z,25.30
2023-05-09T04:08:16.355Z,24.50
2023-05-09T04:09:16.383Z,24.70
2023-05-09T04:10:16.966Z,23.60
2023-05-09T04:11:17.565Z,25.00
2023-05-09T04:12:18.185Z,24.20
2023-05-09T04:13:18.248Z,24.70
2023-05-09T04:14:18.324Z,24.50
2023-05-09T04:15:18.341Z,25.60
2023-05-09T04:16:18.970Z,25.60
2023-05-09T04:17:19.025Z,25.20
2023-05-09T04:18:19.039Z,25.70
2023-05-09T04:19:20.340Z,25.50
2023-05-09T04:20:19.776Z,24.50
2023-05-09T04:21:19.788Z,21.90
2023-05-09T04:22:19.804Z,20.00
2023-05-09T04:23:20.394Z,20.50
2023-05-09T04:24:20.976Z,19.00
2023-05-09T04:25:21.562Z,21.30
2023-05-09T04:26:22.149Z,18.80
2023-05-09T04:27:22.773Z,18.70
2023-05-09T04:28:22.802Z,19.20
2023-05-09T04:29:22.829Z,18.50
2023-05-09T04:30:22.855Z,18.70
2023-05-09T04:31:22.959Z,19.20
2023-05-09T04:32:23.078Z,20.00
2023-05-09T04:33:23.103Z,20.40
2023-05-09T04:34:23.138Z,20.10
2023-05-09T04:35:23.363Z,19.80
2023-05-09T04:36:23.529Z,22.60
2023-05-09T04:37:23.545Z,22.00
2023-05-09T04:38:23.568Z,21.80
2023-05-09T04:39:23.595Z,21.00
2023-05-09T04:40:25.446Z,21.40
2023-05-09T04:41:23.768Z,23.00
2023-05-09T04:42:23.793Z,22.00
2023-05-09T04:43:23.809Z,22.80
2023-05-09T04:44:24.429Z,23.30
2023-05-09T04:45:24.478Z,23.30
2023-05-09T04:46:25.726Z,22.50
2023-05-09T04:47:24.777Z,24.10
2023-05-09T04:48:24.813Z,24.10
2023-05-09T04:49:24.832Z,23.60
2023-05-09T04:50:24.848Z,24.30
2023-05-09T04:51:25.438Z,25.20
2023-05-09T04:52:26.061Z,23.00
2023-05-09T04:53:26.100Z,21.30
2023-05-09T04:54:26.123Z,21.00
2023-05-09T04:55:26.152Z,22.80
2023-05-09T04:56:26.747Z,20.90
2023-05-09T04:57:26.762Z,18.80
2023-05-09T04:58:27.417Z,20.20
2023-05-09T04:59:27.423Z,19.70
